createdAt,value
2022-11-25T00:00:36.626Z,99186.41
2022-11-25T00:03:06.329Z,99183.16
2022-11-25T00:05:37.396Z,99175.50
2022-11-25T00:08:06.955Z,99184.59
2022-11-25T00:10:36.557Z,99182.59
2022-11-25T00:13:06.884Z,99177.84
2022-11-25T00:15:36.938Z,99187.66
2022-11-25T00:18:06.446Z,99190.16
2022-11-25T00:20:38.158Z,99193.66
2022-11-25T00:23:07.619Z,99192.97
2022-11-25T00:25:37.299Z,99195.03
2022-11-25T00:28:06.865Z,99202.75
2022-11-25T00:30:36.393Z,99208.19
2022-11-25T00:33:05.898Z,99213.25
2022-11-25T00:35:37.164Z,99217.16
2022-11-25T00:38:06.864Z,99208.78
2022-11-25T00:40:36.452Z,99196.31
2022-11-25T00:43:23.248Z,99201.63
2022-11-25T00:45:52.886Z,99200.94
2022-11-25T00:48:22.412Z,99199.13
2022-11-25T00:50:53.352Z,99201.63
2022-11-25T00:53:22.839Z,99196.59
2022-11-25T00:56:09.919Z,99208.53
2022-11-25T00:58:39.728Z,99201.06
2022-11-25T01:01:09.348Z,99203.59
2022-11-25T01:03:39.426Z,99200.53
2022-11-25T01:06:11.338Z,99204.91
2022-11-25T01:08:41.025Z,99193.53
2022-11-25T01:11:13.612Z,99204.44
2022-11-25T01:13:43.730Z,99194.75
2022-11-25T01:16:15.601Z,99198.84
2022-11-25T01:18:45.359Z,99198.97
2022-11-25T01:21:17.117Z,99191.00
2022-11-25T01:23:47.045Z,99203.34
2022-11-25T01:26:17.387Z,99204.91
2022-11-25T01:28:47.790Z,99202.25
2022-11-25T01:31:18.617Z,99198.72
2022-11-25T01:33:48.943Z,99206.69
2022-11-25T01:36:19.820Z,99191.59
2022-11-25T01:38:51.681Z,99200.13
2022-11-25T01:41:21.986Z,99205.06
2022-11-25T01:44:05.321Z,99200.28
2022-11-25T01:46:42.038Z,99188.22
2022-11-25T01:49:14.509Z,99200.28
2022-11-25T01:51:47.578Z,99188.53
2022-11-25T01:54:19.527Z,99190.59
2022-11-25T01:56:51.954Z,99191.06
2022-11-25T01:59:21.697Z,99193.59
2022-11-25T02:01:51.248Z,99195.78
2022-11-25T02:04:21.369Z,99194.97
2022-11-25T02:06:55.349Z,99196.50
2022-11-25T02:09:24.996Z,99198.59
2022-11-25T02:11:55.265Z,99202.81
2022-11-25T02:14:26.401Z,99198.44
2022-11-25T02:16:56.679Z,99208.13
2022-11-25T02:19:30.900Z,99207.28
2022-11-25T02:22:04.121Z,99202.66
2022-11-25T02:24:37.100Z,99195.78
2022-11-25T02:27:08.353Z,99209.09
2022-11-25T02:29:39.203Z,99199.19
2022-11-25T02:32:08.746Z,99207.41
2022-11-25T02:34:47.127Z,99210.34
2022-11-25T02:37:18.952Z,99205.72
2022-11-25T02:39:48.859Z,99200.94
2022-11-25T02:42:21.308Z,99205.25
2022-11-25T02:44:50.867Z,99207.78
2022-11-25T02:47:20.554Z,99206.00
2022-11-25T02:49:50.133Z,99201.06
2022-11-25T02:52:19.653Z,99214.50
2022-11-25T02:54:49.427Z,99215.69
2022-11-25T02:57:20.217Z,99223.44
2022-11-25T02:59:49.853Z,99225.47
2022-11-25T03:02:19.503Z,99226.00
2022-11-25T03:04:49.202Z,99225.88
2022-11-25T03:07:18.701Z,99224.91
2022-11-25T03:09:48.237Z,99227.69
2022-11-25T03:12:20.798Z,99233.41
2022-11-25T03:14:52.085Z,99234.50
2022-11-25T03:17:21.913Z,99236.19
2022-11-25T03:19:51.420Z,99242.34
2022-11-25T03:22:20.999Z,99240.06
2022-11-25T03:24:50.564Z,99252.97
2022-11-25T03:27:20.068Z,99254.34
2022-11-25T03:29:49.713Z,99244.53
2022-11-25T03:32:20.579Z,99241.75
2022-11-25T03:34:50.235Z,99248.75
2022-11-25T03:37:19.927Z,99247.91
2022-11-25T03:39:49.497Z,99252.50
2022-11-25T03:42:19.073Z,99244.78
2022-11-25T03:44:48.672Z,99245.41
2022-11-25T03:47:18.160Z,99251.31
2022-11-25T03:49:49.306Z,99250.09
2022-11-25T03:52:18.836Z,99251.19
2022-11-25T03:54:48.324Z,99258.22
2022-11-25T03:57:18.349Z,99255.56
2022-11-25T03:59:47.927Z,99264.41
2022-11-25T04:02:17.493Z,99266.06
2022-11-25T04:04:47.082Z,99267.28
2022-11-25T04:07:18.146Z,99264.13
2022-11-25T04:09:48.042Z,99258.81
2022-11-25T04:12:35.281Z,99266.53
2022-11-25T04:15:05.569Z,99260.25
2022-11-25T04:17:35.639Z,99263.00
2022-11-25T04:20:05.635Z,99263.13
2022-11-25T04:22:36.558Z,99266.66
2022-11-25T04:25:06.814Z,99268.47
2022-11-25T04:27:36.444Z,99264.56
2022-11-25T04:30:06.609Z,99268.81
2022-11-25T04:32:37.917Z,99263.75
2022-11-25T04:35:08.087Z,99263.22
2022-11-25T04:37:39.203Z,99258.88
2022-11-25T04:40:09.547Z,99264.78
2022-11-25T04:42:39.821Z,99277.94
2022-11-25T04:45:26.169Z,99283.91
2022-11-25T04:47:55.888Z,99273.03
2022-11-25T04:50:25.815Z,99275.69
2022-11-25T04:52:56.880Z,99274.19
2022-11-25T04:55:26.390Z,99266.47
2022-11-25T04:57:55.939Z,99283.75
2022-11-25T05:00:24.509Z,99273.59
2022-11-25T05:02:54.132Z,99282.19
2022-11-25T05:05:23.708Z,99294.28
2022-11-25T05:07:53.344Z,99287.84
2022-11-25T05:10:24.734Z,99299.78
2022-11-25T05:12:55.508Z,99297.41
2022-11-25T05:15:25.541Z,99300.78
2022-11-25T05:17:55.252Z,99299.34
2022-11-25T05:20:24.899Z,99305.63
2022-11-25T05:22:54.378Z,99313.34
2022-11-25T05:25:26.818Z,99316.97
2022-11-25T05:27:56.645Z,99328.06
2022-11-25T05:30:26.131Z,99329.91
2022-11-25T05:32:55.988Z,99330.13
2022-11-25T05:35:25.584Z,99328.06
2022-11-25T05:37:55.181Z,99340.53
2022-11-25T05:40:26.087Z,99340.53
2022-11-25T05:42:55.568Z,99350.06
2022-11-25T05:45:25.111Z,99351.88
2022-11-25T05:47:55.931Z,99364.34
2022-11-25T05:50:25.498Z,99369.41
2022-11-25T05:52:54.982Z,99361.56
2022-11-25T05:55:24.473Z,99357.06
2022-11-25T05:57:55.440Z,99367.47
2022-11-25T06:00:26.763Z,99369.84
2022-11-25T06:02:57.033Z,99375.78
2022-11-25T06:05:26.716Z,99377.34
2022-11-25T06:07:56.410Z,99385.91
2022-11-25T06:10:25.967Z,99382.16
2022-11-25T06:12:57.055Z,99399.06
2022-11-25T06:15:26.719Z,99391.09
2022-11-25T06:17:56.879Z,99397.38
2022-11-25T06:20:27.167Z,99396.41
2022-11-25T06:22:56.773Z,99413.47
2022-11-25T06:25:27.416Z,99411.69
2022-11-25T06:28:12.461Z,99418.31
2022-11-25T06:30:42.508Z,99419.97
2022-11-25T06:33:12.047Z,99430.63
2022-11-25T06:35:41.638Z,99435.44
2022-11-25T06:38:11.242Z,99440.91
2022-11-25T06:40:40.760Z,99433.75
2022-11-25T06:43:11.619Z,99444.28
2022-11-25T06:45:41.123Z,99446.22
2022-11-25T06:48:11.538Z,99450.16
2022-11-25T06:50:41.069Z,99474.25
2022-11-25T06:53:10.566Z,99459.00
2022-11-25T06:55:40.276Z,99452.69
2022-11-25T06:58:34.425Z,99463.47
2022-11-25T07:01:04.895Z,99464.91
2022-11-25T07:03:34.861Z,99468.19
2022-11-25T07:06:05.020Z,99460.59
2022-11-25T07:08:34.734Z,99469.66
2022-11-25T07:11:05.537Z,99473.38
2022-11-25T07:13:36.873Z,99471.69
2022-11-25T07:16:07.830Z,99474.94
2022-11-25T07:18:38.174Z,99482.31
2022-11-25T07:21:08.603Z,99483.38
2022-11-25T07:23:39.196Z,99488.81
2022-11-25T07:26:11.052Z,99491.75
2022-11-25T07:28:42.498Z,99483.63
2022-11-25T07:31:24.418Z,99491.22
2022-11-25T07:33:55.828Z,99499.22
2022-11-25T07:36:25.677Z,99500.66
2022-11-25T07:38:55.268Z,99505.63
2022-11-25T07:41:26.133Z,99503.19
2022-11-25T07:43:57.844Z,99517.09
2022-11-25T07:46:28.725Z,99509.13
2022-11-25T07:48:59.072Z,99523.13
2022-11-25T07:51:30.095Z,99523.72
2022-11-25T07:54:00.663Z,99530.03
2022-11-25T07:56:30.609Z,99527.38
2022-11-25T07:59:01.527Z,99532.56
2022-11-25T08:01:31.189Z,99539.91
2022-11-25T08:04:00.722Z,99539.91
2022-11-25T08:06:30.580Z,99545.09
2022-11-25T08:09:00.369Z,99541.22
2022-11-25T08:11:31.561Z,99544.97
2022-11-25T08:14:03.587Z,99557.81
2022-11-25T08:16:33.848Z,99557.03
2022-11-25T08:19:05.629Z,99554.34
2022-11-25T08:21:35.424Z,99551.69
2022-11-25T08:24:05.436Z,99561.81
2022-11-25T08:26:36.611Z,99551.91
2022-11-25T08:29:07.985Z,99565.09
2022-11-25T08:31:38.621Z,99559.50
2022-11-25T08:34:08.409Z,99571.00
2022-11-25T08:36:37.969Z,99561.56
2022-11-25T08:39:28.771Z,99564.56
2022-11-25T08:41:58.324Z,99568.19
2022-11-25T08:44:30.038Z,99577.06
2022-11-25T08:46:59.638Z,99580.16
2022-11-25T08:49:32.771Z,99587.31
2022-11-25T08:52:05.827Z,99568.06
2022-11-25T08:54:35.642Z,99580.88
2022-11-25T08:57:05.804Z,99586.19
2022-11-25T08:59:37.048Z,99579.91
2022-11-25T09:02:07.400Z,99575.47
2022-11-25T09:04:37.096Z,99577.03
2022-11-25T09:07:06.666Z,99576.84
2022-11-25T09:09:36.874Z,99601.34
2022-11-25T09:12:07.410Z,99575.25
2022-11-25T09:14:40.538Z,99574.03
2022-11-25T09:17:11.406Z,99569.34
2022-11-25T09:19:41.322Z,99574.69
2022-11-25T09:22:10.808Z,99574.59
2022-11-25T09:24:41.749Z,99572.88
2022-11-25T09:27:11.556Z,99569.81
2022-11-25T09:29:42.695Z,99576.44
2022-11-25T09:32:12.224Z,99570.66
2022-11-25T09:34:41.808Z,99566.31
2022-11-25T09:37:12.668Z,99550.72
2022-11-25T09:39:42.197Z,99551.28
2022-11-25T09:42:36.730Z,99551.84
2022-11-25T09:45:35.017Z,99541.47
2022-11-25T09:48:10.916Z,99553.75
2022-11-25T09:50:44.038Z,99553.59
2022-11-25T09:53:18.500Z,99553.34
2022-11-25T09:55:48.804Z,99554.63
2022-11-25T09:58:25.959Z,99549.44
2022-11-25T10:00:57.025Z,99554.91
2022-11-25T10:03:33.781Z,99550.13
2022-11-25T10:06:06.201Z,99557.44
2022-11-25T10:08:37.907Z,99551.53
2022-11-25T10:11:15.305Z,99550.69
2022-11-25T10:13:49.516Z,99550.56
2022-11-25T10:16:30.046Z,99554.34
2022-11-25T10:19:01.979Z,99551.56
2022-11-25T10:21:31.502Z,99552.13
2022-11-25T10:24:01.063Z,99548.72
2022-11-25T10:26:36.888Z,99559.41
2022-11-25T10:29:23.071Z,99566.03
2022-11-25T10:31:56.408Z,99550.13
2022-11-25T10:34:30.750Z,99562.63
2022-11-25T10:37:02.449Z,99559.81
2022-11-25T10:39:34.949Z,99550.97
2022-11-25T10:42:08.136Z,99550.53
2022-11-25T10:44:38.595Z,99565.31
2022-11-25T10:47:16.744Z,99563.59
2022-11-25T10:49:51.080Z,99563.16
2022-11-25T10:52:23.843Z,99563.06
2022-11-25T10:54:57.334Z,99551.34
2022-11-25T10:57:28.610Z,99560.50
2022-11-25T10:59:59.032Z,99557.13
2022-11-25T11:02:30.810Z,99553.44
2022-11-25T11:05:01.800Z,99559.47
2022-11-25T11:07:34.248Z,99557.84
2022-11-25T11:10:15.748Z,99555.72
2022-11-25T11:12:55.697Z,99571.19
2022-11-25T11:15:26.151Z,99574.59
2022-11-25T11:17:58.090Z,99563.78
2022-11-25T11:20:29.064Z,99573.75
2022-11-25T11:23:07.044Z,99571.38
2022-11-25T11:25:39.045Z,99565.34
2022-11-25T11:28:23.409Z,99564.22
2022-11-25T11:30:56.763Z,99566.03
2022-11-25T11:33:36.673Z,99563.78
2022-11-25T11:36:11.861Z,99569.81
2022-11-25T11:38:44.340Z,99565.88
2022-11-25T11:41:20.317Z,99572.94
2022-11-25T11:44:02.379Z,99561.13
2022-11-25T11:46:39.917Z,99563.06
2022-11-25T11:49:30.721Z,99566.72
2022-11-25T11:52:06.320Z,99569.97
2022-11-25T11:54:40.089Z,99561.22
2022-11-25T11:57:17.851Z,99553.06
2022-11-25T11:59:49.906Z,99555.34
2022-11-25T12:02:30.886Z,99559.13
2022-11-25T12:05:06.188Z,99549.69
2022-11-25T12:07:38.192Z,99567.66
2022-11-25T12:10:11.354Z,99572.19
2022-11-25T12:12:47.333Z,99578.09
2022-11-25T12:15:18.968Z,99577.97
2022-11-25T12:17:53.069Z,99570.63
2022-11-25T12:20:31.241Z,99576.97
2022-11-25T12:23:01.908Z,99561.22
2022-11-25T12:25:33.643Z,99566.44
2022-11-25T12:28:06.972Z,99569.25
2022-11-25T12:30:39.650Z,99574.31
2022-11-25T12:33:11.794Z,99580.06
2022-11-25T12:35:47.298Z,99579.06
2022-11-25T12:38:27.616Z,99581.75
2022-11-25T12:41:02.374Z,99577.09
2022-11-25T12:43:36.310Z,99577.38
2022-11-25T12:46:14.319Z,99575.13
2022-11-25T12:48:44.504Z,99583.31
2022-11-25T12:51:21.000Z,99578.53
2022-11-25T12:53:57.145Z,99585.25
2022-11-25T12:56:28.689Z,99588.06
2022-11-25T12:59:06.767Z,99580.19
2022-11-25T13:01:58.125Z,99584.72
2022-11-25T13:04:36.810Z,99585.31
2022-11-25T13:07:33.872Z,99582.78
2022-11-25T13:10:15.382Z,99586.69
2022-11-25T13:12:50.966Z,99584.31
2022-11-25T13:15:26.477Z,99591.16
2022-11-25T13:17:59.061Z,99588.63
2022-11-25T13:20:36.352Z,99593.16
2022-11-25T13:23:10.298Z,99589.22
2022-11-25T13:25:42.156Z,99590.91
2022-11-25T13:28:26.822Z,99602.16
2022-11-25T13:30:56.448Z,99593.31
2022-11-25T13:33:44.838Z,99595.69
2022-11-25T13:36:17.507Z,99607.66
2022-11-25T13:39:02.309Z,99604.44
2022-11-25T13:41:38.460Z,99607.38
2022-11-25T13:44:15.191Z,99605.41
2022-11-25T13:46:45.426Z,99617.38
2022-11-25T13:49:23.309Z,99611.75
2022-11-25T13:51:54.475Z,99613.84
2022-11-25T13:54:26.840Z,99617.09
2022-11-25T13:57:16.423Z,99612.88
2022-11-25T13:59:56.813Z,99606.81
2022-11-25T14:02:45.261Z,99614.97
2022-11-25T14:05:32.743Z,99618.78
2022-11-25T14:08:08.159Z,99618.34
2022-11-25T14:10:45.695Z,99637.06
2022-11-25T14:13:25.862Z,99633.41
2022-11-25T14:16:07.272Z,99643.81
2022-11-25T14:21:56.575Z,99638.31
2022-11-25T14:24:40.921Z,99646.47
2022-11-25T14:27:15.255Z,99641.84
2022-11-25T14:29:47.865Z,99638.88
2022-11-25T14:32:20.587Z,99645.34
2022-11-25T14:34:54.025Z,99645.47
2022-11-25T14:37:27.355Z,99649.81
2022-11-25T14:39:59.352Z,99644.34
2022-11-25T14:42:32.987Z,99650.22
2022-11-25T14:45:04.233Z,99662.31
2022-11-25T14:47:37.606Z,99670.47
2022-11-25T14:53:06.545Z,99670.56
2022-11-25T14:55:36.691Z,99673.38
2022-11-25T14:58:06.432Z,99684.91
2022-11-25T15:00:50.540Z,99685.84
2022-11-25T15:03:21.172Z,99693.41
2022-11-25T15:05:55.059Z,99686.94
2022-11-25T15:08:25.518Z,99703.06
2022-11-25T15:10:56.196Z,99699.53
2022-11-25T15:13:30.555Z,99715.13
2022-11-25T15:16:05.866Z,99716.22
2022-11-25T15:18:35.979Z,99719.44
2022-11-25T15:21:05.839Z,99728.81
2022-11-25T15:23:37.513Z,99729.06
2022-11-25T15:26:17.072Z,99731.28
2022-11-25T15:28:46.892Z,99741.88
2022-11-25T15:31:20.700Z,99741.13
2022-11-25T15:33:54.599Z,99740.31
2022-11-25T15:36:24.932Z,99743.09
2022-11-25T15:38:54.937Z,99745.28
2022-11-25T15:41:31.728Z,99746.38
2022-11-25T15:44:03.001Z,99739.63
2022-11-25T15:46:36.755Z,99747.03
2022-11-25T15:49:07.549Z,99751.91
2022-11-25T15:51:39.808Z,99744.28
2022-11-25T15:54:16.013Z,99756.91
2022-11-25T15:56:46.859Z,99757.19
2022-11-25T15:59:35.299Z,99755.47
2022-11-25T16:02:29.355Z,99760.84
2022-11-25T16:05:10.254Z,99756.47
2022-11-25T16:07:40.291Z,99760.50
2022-11-25T16:10:17.340Z,99768.72
2022-11-25T16:13:21.186Z,99760.28
2022-11-25T16:15:53.668Z,99763.34
2022-11-25T16:18:39.899Z,99767.22
2022-11-25T16:21:11.609Z,99778.56
2022-11-25T16:23:45.171Z,99780.28
2022-11-25T16:26:16.915Z,99786.59
2022-11-25T16:28:52.550Z,99790.50
2022-11-25T16:31:22.672Z,99794.81
2022-11-25T16:33:54.773Z,99799.69
2022-11-25T16:36:24.338Z,99804.78
2022-11-25T16:38:55.006Z,99810.22
2022-11-25T16:41:25.774Z,99807.69
2022-11-25T16:43:57.152Z,99812.19
2022-11-25T16:46:28.910Z,99823.53
2022-11-25T16:49:00.008Z,99819.06
2022-11-25T16:51:29.569Z,99823.06
2022-11-25T16:53:59.558Z,99824.97
2022-11-25T16:56:29.799Z,99826.44
2022-11-25T16:58:59.493Z,99832.97
2022-11-25T17:01:29.590Z,99839.84
2022-11-25T17:04:00.986Z,99829.91
2022-11-25T17:06:31.314Z,99837.63
2022-11-25T17:09:00.797Z,99836.44
2022-11-25T17:11:31.766Z,99839.34
2022-11-25T17:14:03.273Z,99838.13
2022-11-25T17:16:33.355Z,99843.06
2022-11-25T17:19:04.496Z,99839.44
2022-11-25T17:21:34.118Z,99854.31
2022-11-25T17:24:07.197Z,99856.38
2022-11-25T17:26:37.908Z,99864.25
2022-11-25T17:29:08.972Z,99866.16
2022-11-25T17:31:38.902Z,99872.06
2022-11-25T17:34:11.783Z,99873.41
2022-11-25T17:36:41.339Z,99863.13
2022-11-25T17:39:12.389Z,99865.63
2022-11-25T17:41:43.796Z,99866.56
2022-11-25T17:44:21.828Z,99870.72
2022-11-25T17:46:52.079Z,99873.59
2022-11-25T17:49:23.718Z,99868.41
2022-11-25T17:51:53.283Z,99875.09
2022-11-25T17:54:22.938Z,99879.47
2022-11-25T17:56:52.806Z,99881.16
2022-11-25T17:59:25.204Z,99878.50
2022-11-25T18:01:56.152Z,99891.91
2022-11-25T18:04:28.051Z,99893.53
2022-11-25T18:06:57.631Z,99890.97
2022-11-25T18:09:27.213Z,99901.06
2022-11-25T18:11:59.121Z,99896.66
2022-11-25T18:14:29.522Z,99899.59
2022-11-25T18:17:01.766Z,99900.03
2022-11-25T18:19:33.475Z,99905.34
2022-11-25T18:22:10.313Z,99907.09
2022-11-25T18:24:40.229Z,99910.50
2022-11-25T18:27:11.972Z,99913.38
2022-11-25T18:29:41.507Z,99916.91
2022-11-25T18:32:11.117Z,99915.81
2022-11-25T18:34:42.108Z,99924.53
2022-11-25T18:37:12.517Z,99918.16
2022-11-25T18:39:42.082Z,99927.31
2022-11-25T18:42:19.632Z,99929.66
2022-11-25T18:44:49.253Z,99923.63
2022-11-25T18:47:19.014Z,99926.50
2022-11-25T18:49:55.138Z,99928.19
2022-11-25T18:52:25.716Z,99931.50
2022-11-25T18:54:55.358Z,99934.72
2022-11-25T18:57:24.994Z,99937.38
2022-11-25T19:00:17.272Z,99940.22
2022-11-25T19:02:44.240Z,99939.72
2022-11-25T19:05:19.912Z,99937.78
2022-11-25T19:07:51.151Z,99944.81
2022-11-25T19:10:21.843Z,99948.31
2022-11-25T19:12:54.208Z,99946.41
2022-11-25T19:15:26.228Z,99957.78
2022-11-25T19:17:57.571Z,99960.09
2022-11-25T19:20:30.279Z,99944.59
2022-11-25T19:23:01.093Z,99960.88
2022-11-25T19:25:31.074Z,99960.66
2022-11-25T19:28:02.383Z,99964.19
2022-11-25T19:30:32.866Z,99969.06
2022-11-25T19:33:03.211Z,99969.50
2022-11-25T19:35:34.949Z,99978.00
2022-11-25T19:38:08.629Z,99970.78
2022-11-25T19:40:40.523Z,99975.44
2022-11-25T19:43:10.725Z,99975.88
2022-11-25T19:45:41.959Z,99988.31
2022-11-25T19:48:14.950Z,99979.59
2022-11-25T19:50:47.464Z,99987.13
2022-11-25T19:53:18.740Z,99982.03
2022-11-25T19:55:48.726Z,99994.59
2022-11-25T19:58:18.416Z,99990.22
2022-11-25T20:00:48.547Z,99995.53
2022-11-25T20:03:20.519Z,99999.34
2022-11-25T20:05:52.525Z,99990.09
2022-11-25T20:08:23.117Z,99989.16
2022-11-25T20:10:53.189Z,99995.19
2022-11-25T20:13:26.153Z,99993.41
2022-11-25T20:15:56.699Z,99997.34
2022-11-25T20:18:27.302Z,100012.63
2022-11-25T20:21:01.540Z,100008.81
2022-11-25T20:23:38.577Z,100012.13
2022-11-25T20:26:15.812Z,100011.78
2022-11-25T20:28:45.678Z,100007.31
2022-11-25T20:31:16.236Z,100009.47
2022-11-25T20:33:47.793Z,100007.72
2022-11-25T20:36:20.164Z,100007.72
2022-11-25T20:38:50.511Z,100020.06
2022-11-25T20:41:25.928Z,100022.06
2022-11-25T20:43:57.849Z,100023.88
2022-11-25T20:46:30.127Z,100028.34
2022-11-25T20:49:01.702Z,100025.34
2022-11-25T20:51:32.695Z,100027.44
2022-11-25T20:54:02.475Z,100026.63
2022-11-25T20:56:32.209Z,100025.00
2022-11-25T20:59:01.789Z,100024.81
2022-11-25T21:01:31.360Z,100024.47
2022-11-25T21:04:01.423Z,100035.00
2022-11-25T21:06:37.917Z,100034.91
2022-11-25T21:09:16.286Z,100046.25
2022-11-25T21:11:46.820Z,100046.25
2022-11-25T21:14:18.058Z,100044.34
2022-11-25T21:16:48.756Z,100047.31
2022-11-25T21:19:18.613Z,100056.75
2022-11-25T21:21:50.631Z,100047.41
2022-11-25T21:24:29.425Z,100051.44
2022-11-25T21:27:00.027Z,100056.13
2022-11-25T21:29:30.270Z,100051.13
2022-11-25T21:31:59.832Z,100052.72
2022-11-25T21:34:29.359Z,100058.84
2022-11-25T21:37:06.220Z,100056.19
2022-11-25T21:39:35.908Z,100054.63
2022-11-25T21:42:07.117Z,100049.72
2022-11-25T21:44:38.727Z,100054.09
2022-11-25T21:47:13.327Z,100062.06
2022-11-25T21:49:43.241Z,100056.81
2022-11-25T21:52:14.209Z,100058.84
2022-11-25T21:54:44.088Z,100069.38
2022-11-25T21:57:15.752Z,100065.88
2022-11-25T21:59:45.827Z,100056.72
2022-11-25T22:02:17.576Z,100062.66
2022-11-25T22:04:47.592Z,100070.19
2022-11-25T22:07:18.687Z,100070.91
2022-11-25T22:09:48.303Z,100069.88
2022-11-25T22:12:26.194Z,100079.63
2022-11-25T22:14:56.657Z,100074.50
2022-11-25T22:17:26.719Z,100071.44
2022-11-25T22:19:57.038Z,100078.56
2022-11-25T22:22:28.553Z,100072.09
2022-11-25T22:24:58.123Z,100073.03
2022-11-25T22:27:36.036Z,100075.69
2022-11-25T22:30:06.372Z,100083.75
2022-11-25T22:32:36.048Z,100090.97
2022-11-25T22:35:07.346Z,100091.91
2022-11-25T22:37:38.512Z,100086.91
2022-11-25T22:40:08.752Z,100084.66
2022-11-25T22:42:38.768Z,100096.22
2022-11-25T22:45:10.325Z,100098.56
2022-11-25T22:47:41.523Z,100097.25
2022-11-25T22:50:18.685Z,100096.88
2022-11-25T22:52:49.727Z,100097.66
2022-11-25T22:55:20.925Z,100091.78
2022-11-25T22:57:51.002Z,100100.59
2022-11-25T23:00:23.384Z,100103.78
2022-11-25T23:02:53.858Z,100109.56
2022-11-25T23:05:30.580Z,100110.25
2022-11-25T23:08:04.150Z,100101.81
2022-11-25T23:10:33.635Z,100099.75
2022-11-25T23:13:03.659Z,100100.88
2022-11-25T23:15:33.835Z,100096.03
2022-11-25T23:18:04.922Z,100109.28
2022-11-25T23:20:35.856Z,100114.41
2022-11-25T23:23:13.611Z,100110.16
2022-11-25T23:25:43.576Z,100103.25
2022-11-25T23:28:13.307Z,100111.94
2022-11-25T23:30:46.869Z,100107.13
2022-11-25T23:33:19.506Z,100110.44
2022-11-25T23:35:49.593Z,100109.59
2022-11-25T23:38:23.441Z,100106.53
2022-11-25T23:40:53.020Z,100108.44
2022-11-25T23:43:22.580Z,100110.72
2022-11-25T23:45:53.561Z,100111.84
2022-11-25T23:48:25.561Z,100112.13
2022-11-25T23:50:55.892Z,100112.72
2022-11-25T23:53:29.109Z,100112.53
2022-11-25T23:55:59.070Z,100120.56
2022-11-25T23:58:29.072Z,100131.56
